createdAt,value
2018-03-08T00:00:48.125Z,99.90
2018-03-08T00:03:15.615Z,99.90
2018-03-08T00:05:43.087Z,99.90
2018-03-08T00:08:10.571Z,99.90
2018-03-08T00:10:39.289Z,99.90
2018-03-08T00:13:06.793Z,99.90
2018-03-08T00:15:34.270Z,99.90
2018-03-08T00:18:01.797Z,99.90
2018-03-08T00:20:29.270Z,99.90
2018-03-08T00:22:56.764Z,99.60
2018-03-08T00:25:24.237Z,99.90
2018-03-08T00:27:51.741Z,99.70
2018-03-08T00:30:19.205Z,99.60
2018-03-08T00:32:46.814Z,99.50
2018-03-08T00:35:14.309Z,99.00
2018-03-08T00:37:41.874Z,99.00
2018-03-08T00:40:09.398Z,99.00
2018-03-08T00:42:36.866Z,98.90
2018-03-08T00:45:04.359Z,98.80
2018-03-08T00:47:31.845Z,98.90
2018-03-08T00:50:00.109Z,99.00
2018-03-08T00:52:28.347Z,98.90
2018-03-08T00:54:55.867Z,98.90
2018-03-08T00:57:23.347Z,98.80
2018-03-08T00:59:50.850Z,98.80
2018-03-08T01:02:19.091Z,99.10
2018-03-08T01:04:46.591Z,99.70
2018-03-08T01:07:14.819Z,99.20
2018-03-08T01:09:42.332Z,99.10
2018-03-08T01:12:10.584Z,99.00
2018-03-08T01:14:38.094Z,99.00
2018-03-08T01:17:06.341Z,98.90
2018-03-08T01:19:34.615Z,98.90
2018-03-08T01:22:02.853Z,99.10
2018-03-08T01:24:31.133Z,99.00
2018-03-08T01:26:58.754Z,99.00
2018-03-08T01:29:26.243Z,99.00
2018-03-08T01:31:53.723Z,99.10
2018-03-08T01:34:21.226Z,99.00
2018-03-08T01:36:48.786Z,98.90
2018-03-08T01:39:16.286Z,98.90
2018-03-08T01:41:43.763Z,98.80
2018-03-08T01:44:11.263Z,98.90
2018-03-08T01:46:38.755Z,98.90
2018-03-08T01:49:06.239Z,99.00
2018-03-08T01:51:34.559Z,99.10
2018-03-08T01:54:02.090Z,99.00
2018-03-08T01:56:30.664Z,99.00
2018-03-08T01:58:58.148Z,99.00
2018-03-08T02:01:25.627Z,99.00
2018-03-08T02:03:53.118Z,99.00
2018-03-08T02:06:20.590Z,99.20
2018-03-08T02:08:48.815Z,98.90
2018-03-08T02:11:16.302Z,98.90
2018-03-08T02:13:43.784Z,99.00
2018-03-08T02:16:12.055Z,98.80
2018-03-08T02:18:40.296Z,98.80
2018-03-08T02:21:08.579Z,98.90
2018-03-08T02:23:36.052Z,98.90
2018-03-08T02:26:03.561Z,98.90
2018-03-08T02:28:31.026Z,99.00
2018-03-08T02:30:58.534Z,99.10
2018-03-08T02:33:26.012Z,98.90
2018-03-08T02:35:54.268Z,98.90
2018-03-08T02:38:21.764Z,98.90
2018-03-08T02:40:49.244Z,98.60
2018-03-08T02:43:16.744Z,98.90
2018-03-08T02:45:44.229Z,98.90
2018-03-08T02:48:11.738Z,98.90
2018-03-08T02:50:39.653Z,98.90
2018-03-08T02:53:07.230Z,98.80
2018-03-08T02:55:34.707Z,98.90
2018-03-08T02:58:02.345Z,99.10
2018-03-08T03:00:29.830Z,99.50
2018-03-08T03:02:57.297Z,99.30
2018-03-08T03:05:24.823Z,99.80
2018-03-08T03:07:52.278Z,99.90
2018-03-08T03:10:19.794Z,99.90
2018-03-08T03:12:47.302Z,99.90
2018-03-08T03:15:14.760Z,99.90
2018-03-08T03:17:43.128Z,99.90
2018-03-08T03:20:10.662Z,99.90
2018-03-08T03:22:38.889Z,99.90
2018-03-08T03:25:06.391Z,99.90
2018-03-08T03:27:34.661Z,99.90
2018-03-08T03:30:02.982Z,99.90
2018-03-08T03:32:30.460Z,99.90
2018-03-08T03:34:57.959Z,99.90
2018-03-08T03:37:26.188Z,99.90
2018-03-08T03:39:53.729Z,99.90
2018-03-08T03:42:21.196Z,99.90
2018-03-08T03:44:48.695Z,99.90
2018-03-08T03:47:16.179Z,99.90
2018-03-08T03:49:43.689Z,99.90
2018-03-08T03:52:11.932Z,99.90
2018-03-08T03:54:39.453Z,99.90
2018-03-08T03:57:07.694Z,99.90
2018-03-08T03:59:35.189Z,99.90
2018-03-08T04:02:03.428Z,99.90
2018-03-08T04:04:30.971Z,99.90
2018-03-08T04:06:59.180Z,99.90
2018-03-08T04:09:26.688Z,99.90
2018-03-08T04:11:54.351Z,99.90
2018-03-08T04:14:21.947Z,99.90
2018-03-08T04:16:49.418Z,99.90
2018-03-08T04:19:16.929Z,99.90
2018-03-08T04:21:44.410Z,99.90
2018-03-08T04:24:11.878Z,99.90
2018-03-08T04:26:39.405Z,99.90
2018-03-08T04:29:06.871Z,99.90
2018-03-08T04:31:34.360Z,99.90
2018-03-08T04:34:01.845Z,99.90
2018-03-08T04:36:30.125Z,99.90
2018-03-08T04:38:58.364Z,99.90
2018-03-08T04:41:25.860Z,99.90
2018-03-08T04:43:54.095Z,99.90
2018-03-08T04:46:21.779Z,99.90
2018-03-08T04:48:49.257Z,99.90
2018-03-08T04:51:17.556Z,99.90
2018-03-08T04:53:45.112Z,99.90
2018-03-08T04:56:12.568Z,99.90
2018-03-08T04:58:40.131Z,99.90
2018-03-08T05:01:07.614Z,99.90
2018-03-08T05:03:35.134Z,99.90
2018-03-08T05:06:02.624Z,99.90
2018-03-08T05:08:30.116Z,99.90
2018-03-08T05:10:57.603Z,99.90
2018-03-08T05:13:25.898Z,99.90
2018-03-08T05:15:53.362Z,99.90
2018-03-08T05:18:20.865Z,99.90
2018-03-08T05:20:48.345Z,99.90
2018-03-08T05:23:16.625Z,99.90
2018-03-08T05:25:44.878Z,99.90
2018-03-08T05:28:12.388Z,99.90
2018-03-08T05:30:39.891Z,99.90
2018-03-08T05:33:07.439Z,99.90
2018-03-08T05:35:34.920Z,99.90
2018-03-08T05:38:03.186Z,99.90
2018-03-08T05:40:30.657Z,99.90
2018-03-08T05:42:58.972Z,99.90
2018-03-08T05:45:27.201Z,99.90
2018-03-08T05:47:54.713Z,99.90
2018-03-08T05:50:22.187Z,99.90
2018-03-08T05:52:49.703Z,99.90
2018-03-08T05:55:17.197Z,99.90
2018-03-08T05:57:44.723Z,99.90
2018-03-08T06:00:13.027Z,99.90
2018-03-08T06:02:41.061Z,99.90
2018-03-08T06:05:08.552Z,99.90
2018-03-08T06:07:36.064Z,99.90
2018-03-08T06:10:04.324Z,99.90
2018-03-08T06:12:31.795Z,99.90
2018-03-08T06:15:00.077Z,99.90
2018-03-08T06:17:28.333Z,99.90
2018-03-08T06:19:55.841Z,99.90
2018-03-08T06:22:23.336Z,99.90
2018-03-08T06:24:50.858Z,99.90
2018-03-08T06:27:18.332Z,99.90
2018-03-08T06:29:45.850Z,99.90
2018-03-08T06:32:13.328Z,99.90
2018-03-08T06:34:40.857Z,99.90
2018-03-08T06:37:09.101Z,99.90
2018-03-08T06:39:36.610Z,99.90
2018-03-08T06:42:04.084Z,99.90
2018-03-08T06:44:31.587Z,99.90
2018-03-08T06:46:59.056Z,99.90
2018-03-08T06:49:27.396Z,99.90
2018-03-08T06:51:54.877Z,99.90
2018-03-08T06:54:22.403Z,99.90
2018-03-08T06:56:49.882Z,99.90
2018-03-08T06:59:18.123Z,99.90
2018-03-08T07:01:45.641Z,99.90
2018-03-08T07:04:13.119Z,99.90
2018-03-08T07:06:40.625Z,99.90
2018-03-08T07:09:08.168Z,99.90
2018-03-08T07:11:35.667Z,99.90
2018-03-08T07:14:03.136Z,99.90
2018-03-08T07:16:31.421Z,99.90
2018-03-08T07:18:59.676Z,99.90
2018-03-08T07:21:28.059Z,99.90
2018-03-08T07:23:55.716Z,99.90
2018-03-08T07:26:23.223Z,99.90
2018-03-08T07:28:50.702Z,99.90
2018-03-08T07:31:18.215Z,99.90
2018-03-08T07:33:46.472Z,99.90
2018-03-08T07:36:14.761Z,99.90
2018-03-08T07:38:42.223Z,99.90
2018-03-08T07:41:10.473Z,99.90
2018-03-08T07:43:37.982Z,99.90
2018-03-08T07:46:05.545Z,99.90
2018-03-08T07:48:33.014Z,99.90
2018-03-08T07:51:00.496Z,99.90
2018-03-08T07:53:28.001Z,99.90
2018-03-08T07:55:55.472Z,99.90
2018-03-08T07:58:22.967Z,99.90
2018-03-08T08:00:50.444Z,99.90
2018-03-08T08:03:18.185Z,99.90
2018-03-08T08:06:06.363Z,99.90
2018-03-08T08:08:46.187Z,99.90
2018-03-08T08:11:13.673Z,99.90
2018-03-08T08:13:41.946Z,99.90
2018-03-08T08:16:09.422Z,99.90
2018-03-08T08:18:36.923Z,99.90
2018-03-08T08:21:04.425Z,99.90
2018-03-08T08:23:31.929Z,99.90
2018-03-08T08:25:59.448Z,99.90
2018-03-08T08:28:26.971Z,99.90
2018-03-08T08:30:54.455Z,99.90
2018-03-08T08:33:21.962Z,99.90
2018-03-08T08:35:49.443Z,99.90
2018-03-08T08:38:17.022Z,99.50
2018-03-08T08:40:45.284Z,98.70
2018-03-08T08:43:12.787Z,98.70
2018-03-08T08:45:40.275Z,98.30
2018-03-08T08:48:07.781Z,97.80
2018-03-08T08:50:36.018Z,97.10
2018-03-08T08:53:03.518Z,97.10
2018-03-08T08:55:31.753Z,95.40
2018-03-08T08:57:59.263Z,95.40
2018-03-08T09:00:26.837Z,94.70
2018-03-08T09:02:54.328Z,94.10
2018-03-08T09:05:21.809Z,92.20
2018-03-08T09:07:49.313Z,91.10
2018-03-08T09:10:16.792Z,87.00
2018-03-08T09:12:44.314Z,82.30
2018-03-08T09:15:11.806Z,80.00
2018-03-08T09:17:39.296Z,78.90
2018-03-08T09:20:06.767Z,78.90
2018-03-08T09:22:35.053Z,76.50
2018-03-08T09:25:02.516Z,76.40
2018-03-08T09:27:30.800Z,75.50
2018-03-08T09:29:58.305Z,75.30
2018-03-08T09:32:25.775Z,71.60
2018-03-08T09:34:53.262Z,74.30
2018-03-08T09:37:20.836Z,76.00
2018-03-08T09:39:48.354Z,76.80
2018-03-08T09:42:16.596Z,78.00
2018-03-08T09:44:44.096Z,77.80
2018-03-08T09:47:12.351Z,75.10
2018-03-08T09:49:39.854Z,75.80
2018-03-08T09:52:07.359Z,75.80
2018-03-08T09:54:34.874Z,74.70
2018-03-08T09:57:02.357Z,71.50
2018-03-08T09:59:29.863Z,70.20
2018-03-08T10:01:58.108Z,68.50
2018-03-08T10:04:25.622Z,68.50
2018-03-08T10:06:53.129Z,68.60
2018-03-08T10:09:20.667Z,71.40
2018-03-08T10:11:48.159Z,71.90
2018-03-08T10:14:15.650Z,72.80
2018-03-08T10:16:43.150Z,72.70
2018-03-08T10:19:10.644Z,73.00
2018-03-08T10:21:45.149Z,71.80
2018-03-08T10:24:05.690Z,68.80
2018-03-08T10:26:33.202Z,66.80
2018-03-08T10:29:00.747Z,63.00
2018-03-08T10:31:28.948Z,61.70
2018-03-08T10:33:56.416Z,61.70
2018-03-08T10:36:24.675Z,56.60
2018-03-08T10:38:52.151Z,56.50
2018-03-08T10:41:20.431Z,60.60
2018-03-08T10:43:47.896Z,60.60
2018-03-08T10:46:15.419Z,61.40
2018-03-08T10:51:10.415Z,63.90
2018-03-08T10:53:38.656Z,65.40
2018-03-08T10:56:06.184Z,65.40
2018-03-08T10:58:33.664Z,66.30
2018-03-08T11:01:01.939Z,66.00
2018-03-08T11:03:35.852Z,66.80
2018-03-08T11:06:18.235Z,66.90
2018-03-08T11:08:46.503Z,67.20
2018-03-08T11:11:14.008Z,67.20
2018-03-08T11:13:41.496Z,67.10
2018-03-08T11:16:08.980Z,67.00
2018-03-08T11:18:36.479Z,65.70
2018-03-08T11:21:03.979Z,65.10
2018-03-08T11:23:31.493Z,65.10
2018-03-08T11:25:58.967Z,65.60
2018-03-08T11:28:26.458Z,65.20
2018-03-08T11:30:53.934Z,65.20
2018-03-08T11:33:22.207Z,64.30
2018-03-08T11:35:49.676Z,64.20
2018-03-08T11:38:18.026Z,61.70
2018-03-08T11:40:45.552Z,61.70
2018-03-08T11:43:13.054Z,61.50
2018-03-08T11:45:40.568Z,62.80
2018-03-08T11:48:08.063Z,62.50
2018-03-08T11:50:35.536Z,61.40
2018-03-08T11:53:03.816Z,63.70
2018-03-08T11:55:32.074Z,62.80
2018-03-08T11:57:59.580Z,62.80
2018-03-08T12:00:27.079Z,61.80
2018-03-08T12:02:54.595Z,62.70
2018-03-08T12:05:22.055Z,62.50
2018-03-08T12:07:49.561Z,62.40
2018-03-08T12:10:17.278Z,62.70
2018-03-08T12:12:45.622Z,63.10
2018-03-08T12:15:13.860Z,63.60
2018-03-08T12:17:41.388Z,63.60
2018-03-08T12:20:08.892Z,64.10
2018-03-08T12:22:36.389Z,64.90
2018-03-08T12:25:03.867Z,63.30
2018-03-08T12:27:31.379Z,63.90
2018-03-08T12:29:58.840Z,64.30
2018-03-08T12:32:27.078Z,64.90
2018-03-08T12:34:54.583Z,64.30
2018-03-08T12:37:22.827Z,62.90
2018-03-08T12:39:50.325Z,62.90
2018-03-08T12:42:18.564Z,61.90
2018-03-08T12:44:46.078Z,61.90
2018-03-08T12:47:13.563Z,62.80
2018-03-08T12:49:41.864Z,63.20
2018-03-08T12:52:09.352Z,63.90
2018-03-08T12:54:37.616Z,62.30
2018-03-08T12:57:05.875Z,59.10
2018-03-08T12:59:33.372Z,59.10
2018-03-08T13:02:00.852Z,56.50
2018-03-08T13:04:28.355Z,53.90
2018-03-08T13:06:55.838Z,52.50
2018-03-08T13:09:23.348Z,53.20
2018-03-08T13:11:50.868Z,51.70
2018-03-08T13:14:18.394Z,48.80
2018-03-08T13:16:46.648Z,47.40
2018-03-08T13:19:14.157Z,47.40
2018-03-08T13:21:41.628Z,47.60
2018-03-08T13:24:09.156Z,48.10
2018-03-08T13:26:37.412Z,50.30
2018-03-08T13:29:04.947Z,50.30
2018-03-08T13:31:32.446Z,51.80
2018-03-08T13:34:00.679Z,53.40
2018-03-08T13:36:28.198Z,53.40
2018-03-08T13:38:55.682Z,53.90
2018-03-08T13:41:23.296Z,55.20
2018-03-08T13:43:51.550Z,56.00
2018-03-08T13:46:19.165Z,56.00
2018-03-08T13:48:46.673Z,55.90
2018-03-08T13:51:14.151Z,55.60
2018-03-08T13:53:42.416Z,55.10
2018-03-08T13:56:10.733Z,54.60
2018-03-08T13:58:38.225Z,54.30
2018-03-08T14:01:05.708Z,53.80
2018-03-08T14:03:33.218Z,52.30
2018-03-08T14:06:00.692Z,50.30
2018-03-08T14:08:28.234Z,50.50
2018-03-08T14:10:55.742Z,50.60
2018-03-08T14:13:23.244Z,50.70
2018-03-08T14:15:51.218Z,50.90
2018-03-08T14:18:18.789Z,51.40
2018-03-08T14:20:46.303Z,51.10
2018-03-08T14:23:14.569Z,50.40
2018-03-08T14:25:42.038Z,50.40
2018-03-08T14:28:10.309Z,51.20
2018-03-08T14:30:38.980Z,50.40
2018-03-08T14:33:07.244Z,49.00
2018-03-08T14:35:34.731Z,49.00
2018-03-08T14:38:03.005Z,48.10
2018-03-08T14:40:30.529Z,48.10
2018-03-08T14:42:58.055Z,47.10
2018-03-08T14:45:25.542Z,45.70
2018-03-08T14:47:53.029Z,44.40
2018-03-08T14:50:21.332Z,41.20
2018-03-08T14:52:48.860Z,41.20
2018-03-08T14:55:17.107Z,41.90
2018-03-08T14:57:44.594Z,41.90
2018-03-08T15:00:12.159Z,41.90
2018-03-08T15:02:39.632Z,43.50
2018-03-08T15:05:07.905Z,45.70
2018-03-08T15:07:36.196Z,46.30
2018-03-08T15:10:03.695Z,46.20
2018-03-08T15:12:31.181Z,47.80
2018-03-08T15:14:59.475Z,48.30
2018-03-08T15:17:27.747Z,48.90
2018-03-08T15:19:56.021Z,49.10
2018-03-08T15:22:24.336Z,49.70
2018-03-08T15:24:51.856Z,49.70
2018-03-08T15:27:20.159Z,50.10
2018-03-08T15:29:47.678Z,50.10
2018-03-08T15:32:15.158Z,49.70
2018-03-08T15:34:42.675Z,49.40
2018-03-08T15:37:10.154Z,49.40
2018-03-08T15:39:37.654Z,49.50
2018-03-08T15:42:05.136Z,49.20
2018-03-08T15:44:32.664Z,50.40
2018-03-08T15:47:00.155Z,50.40
2018-03-08T15:49:27.666Z,50.50
2018-03-08T15:51:55.156Z,50.60
2018-03-08T15:54:22.649Z,50.90
2018-03-08T15:56:50.143Z,50.20
2018-03-08T15:59:17.651Z,50.10
2018-03-08T16:01:45.821Z,50.60
2018-03-08T16:04:13.336Z,50.10
2018-03-08T16:07:05.545Z,49.80
2018-03-08T16:09:44.893Z,50.60
2018-03-08T16:12:13.149Z,55.40
2018-03-08T16:14:40.671Z,55.20
2018-03-08T16:17:08.171Z,58.20
2018-03-08T16:19:35.690Z,58.20
2018-03-08T16:22:03.197Z,57.50
2018-03-08T16:24:31.461Z,56.00
2018-03-08T16:26:58.939Z,55.90
2018-03-08T16:29:27.264Z,55.00
2018-03-08T16:31:54.757Z,55.00
2018-03-08T16:34:22.259Z,54.10
2018-03-08T16:36:49.740Z,53.30
2018-03-08T16:39:17.612Z,53.70
2018-03-08T16:41:45.111Z,53.50
2018-03-08T16:44:13.441Z,52.30
2018-03-08T16:46:40.916Z,52.10
2018-03-08T16:49:08.400Z,52.30
2018-03-08T16:51:36.688Z,53.40
2018-03-08T16:54:04.918Z,55.50
2018-03-08T16:56:32.433Z,55.50
2018-03-08T16:58:59.893Z,58.10
2018-03-08T17:01:27.415Z,70.00
2018-03-08T17:03:54.880Z,91.30
2018-03-08T17:06:23.182Z,91.00
2018-03-08T17:08:50.680Z,91.10
2018-03-08T17:11:18.208Z,93.50
2018-03-08T17:13:45.696Z,93.80
2018-03-08T17:16:13.196Z,93.80
2018-03-08T17:18:41.494Z,94.70
2018-03-08T17:21:09.741Z,95.90
2018-03-08T17:23:37.264Z,95.80
2018-03-08T17:26:04.733Z,95.80
2018-03-08T17:28:32.272Z,95.90
2018-03-08T17:30:59.794Z,96.30
2018-03-08T17:33:27.258Z,96.90
2018-03-08T17:35:54.793Z,97.40
2018-03-08T17:38:23.036Z,98.30
2018-03-08T17:40:50.544Z,98.30
2018-03-08T17:43:18.019Z,99.10
2018-03-08T17:45:45.554Z,99.40
2018-03-08T17:48:13.835Z,99.20
2018-03-08T17:50:41.345Z,99.20
2018-03-08T17:53:08.820Z,99.50
2018-03-08T17:55:36.327Z,99.90
2018-03-08T17:58:03.824Z,99.90
2018-03-08T18:00:31.308Z,99.90
2018-03-08T18:02:59.574Z,99.90
2018-03-08T18:05:27.110Z,99.90
2018-03-08T18:07:54.574Z,99.90
2018-03-08T18:10:22.104Z,99.90
2018-03-08T18:12:49.589Z,99.90
2018-03-08T18:15:17.056Z,99.50
2018-03-08T18:17:44.565Z,99.50
2018-03-08T18:20:12.047Z,99.90
2018-03-08T18:22:40.260Z,99.90
2018-03-08T18:25:07.752Z,99.90
2018-03-08T18:27:35.283Z,99.90
2018-03-08T18:30:03.564Z,99.90
2018-03-08T18:32:31.830Z,99.90
2018-03-08T18:34:59.388Z,99.90
2018-03-08T18:37:26.900Z,99.90
2018-03-08T18:39:54.895Z,99.80
2018-03-08T18:42:22.412Z,99.70
2018-03-08T18:44:50.013Z,99.90
2018-03-08T18:47:17.512Z,99.90
2018-03-08T18:49:45.749Z,99.90
2018-03-08T18:52:13.259Z,99.90
2018-03-08T18:54:40.725Z,99.90
2018-03-08T18:57:08.225Z,99.90
2018-03-08T18:59:35.755Z,99.90
2018-03-08T19:02:03.249Z,99.90
2018-03-08T19:04:30.736Z,99.90
2018-03-08T19:06:58.269Z,99.90
2018-03-08T19:09:25.728Z,99.90
2018-03-08T19:11:53.219Z,99.90
2018-03-08T19:14:20.728Z,99.90
2018-03-08T19:16:48.288Z,99.90
2018-03-08T19:19:15.810Z,99.90
2018-03-08T19:21:43.301Z,99.90
2018-03-08T19:24:10.819Z,99.90
2018-03-08T19:26:38.301Z,99.90
2018-03-08T19:29:05.808Z,99.90
2018-03-08T19:31:34.051Z,99.90
2018-03-08T19:34:01.545Z,99.90
2018-03-08T19:36:29.789Z,99.90
2018-03-08T19:38:57.647Z,99.90
2018-03-08T19:41:25.146Z,99.90
2018-03-08T19:43:53.403Z,99.90
2018-03-08T19:46:20.903Z,99.90
2018-03-08T19:48:48.614Z,99.90
2018-03-08T19:51:16.100Z,99.90
2018-03-08T19:53:44.676Z,99.90
2018-03-08T19:56:12.960Z,99.90
2018-03-08T19:58:41.230Z,99.90
2018-03-08T20:01:09.529Z,99.90
2018-03-08T20:03:37.069Z,99.90
2018-03-08T20:06:04.532Z,99.90
2018-03-08T20:08:33.135Z,99.90
2018-03-08T20:11:00.660Z,99.90
2018-03-08T20:13:28.905Z,99.90
2018-03-08T20:15:56.405Z,99.90
2018-03-08T20:18:24.810Z,99.90
2018-03-08T20:20:52.319Z,99.90
2018-03-08T20:23:19.852Z,99.90
2018-03-08T20:25:47.347Z,99.90
2018-03-08T20:28:15.585Z,99.90
2018-03-08T20:30:43.093Z,99.90
2018-03-08T20:33:11.340Z,99.90
2018-03-08T20:35:38.825Z,99.90
2018-03-08T20:38:07.059Z,99.90
2018-03-08T20:40:34.565Z,99.90
2018-03-08T20:43:02.808Z,99.90
2018-03-08T20:45:30.318Z,99.90
2018-03-08T20:47:57.812Z,99.90
2018-03-08T20:50:25.311Z,99.90
2018-03-08T20:52:53.561Z,99.90
2018-03-08T20:55:21.108Z,99.90
2018-03-08T20:57:48.568Z,99.90
2018-03-08T21:00:16.187Z,99.90
2018-03-08T21:02:43.686Z,99.90
2018-03-08T21:05:11.164Z,99.90
2018-03-08T21:07:38.669Z,99.90
2018-03-08T21:10:06.189Z,99.90
2018-03-08T21:12:34.473Z,99.90
2018-03-08T21:15:02.731Z,99.90
2018-03-08T21:17:30.242Z,99.90
2018-03-08T21:19:57.721Z,99.90
2018-03-08T21:22:25.348Z,99.90
2018-03-08T21:24:52.825Z,99.90
2018-03-08T21:27:20.316Z,99.90
2018-03-08T21:29:47.799Z,99.90
2018-03-08T21:32:15.278Z,99.90
2018-03-08T21:34:42.768Z,99.90
2018-03-08T21:37:10.291Z,99.90
2018-03-08T21:39:37.842Z,99.90
2018-03-08T21:42:05.322Z,99.90
2018-03-08T21:44:32.812Z,99.90
2018-03-08T21:47:00.319Z,99.90
2018-03-08T21:49:27.849Z,99.90
2018-03-08T21:51:55.337Z,99.90
2018-03-08T21:54:22.836Z,99.90
2018-03-08T21:56:50.310Z,99.90
2018-03-08T21:59:17.813Z,99.90
2018-03-08T22:01:45.280Z,99.90
2018-03-08T22:04:12.927Z,99.90
2018-03-08T22:06:40.403Z,99.90
2018-03-08T22:09:07.897Z,99.90
2018-03-08T22:11:35.397Z,99.90
2018-03-08T22:14:02.891Z,99.90
2018-03-08T22:16:30.423Z,99.90
2018-03-08T22:18:57.892Z,99.90
2018-03-08T22:21:25.405Z,99.90
2018-03-08T22:23:52.859Z,99.90
2018-03-08T22:26:20.357Z,99.90
2018-03-08T22:28:47.834Z,99.90
2018-03-08T22:31:15.336Z,99.90
2018-03-08T22:33:42.832Z,99.90
2018-03-08T22:36:10.320Z,99.90
2018-03-08T22:38:37.803Z,99.90
2018-03-08T22:41:05.316Z,99.90
2018-03-08T22:43:32.820Z,99.90
2018-03-08T22:46:00.309Z,99.90
2018-03-08T22:48:27.852Z,99.90
2018-03-08T22:50:55.307Z,99.90
2018-03-08T22:53:23.594Z,99.90
2018-03-08T22:55:51.860Z,99.90
2018-03-08T22:58:20.105Z,99.90
2018-03-08T23:00:47.628Z,99.90
2018-03-08T23:03:20.787Z,99.90
2018-03-08T23:05:49.054Z,99.90
2018-03-08T23:08:17.306Z,99.90
2018-03-08T23:10:44.806Z,99.90
2018-03-08T23:13:12.301Z,99.90
2018-03-08T23:15:39.815Z,99.90
2018-03-08T23:18:08.049Z,99.90
2018-03-08T23:20:35.550Z,99.90
2018-03-08T23:23:03.798Z,99.90
2018-03-08T23:25:31.398Z,99.90
2018-03-08T23:27:58.888Z,99.90
2018-03-08T23:30:26.380Z,99.90
2018-03-08T23:32:54.695Z,99.90
2018-03-08T23:35:22.207Z,99.90
2018-03-08T23:37:49.683Z,99.90
2018-03-08T23:40:17.197Z,99.90
2018-03-08T23:42:44.684Z,99.90
2018-03-08T23:45:12.171Z,99.90
2018-03-08T23:47:40.436Z,99.90
2018-03-08T23:50:08.684Z,99.90
2018-03-08T23:52:36.177Z,99.90
2018-03-08T23:55:03.668Z,99.90
2018-03-08T23:57:31.163Z,99.90
2018-03-08T23:59:58.649Z,99.90
